createdAt,value
2019-06-26T00:00:30.791Z,4.12
2019-06-26T00:02:59.227Z,3.60
2019-06-26T00:05:27.741Z,3.98
2019-06-26T00:07:57.669Z,3.80
2019-06-26T00:10:26.290Z,3.83
2019-06-26T00:12:54.811Z,3.83
2019-06-26T00:15:23.282Z,4.10
2019-06-26T00:17:52.546Z,3.70
2019-06-26T00:20:22.118Z,3.70
2019-06-26T00:22:50.624Z,3.98
2019-06-26T00:25:19.111Z,4.10
2019-06-26T00:27:47.714Z,4.05
2019-06-26T00:30:16.494Z,4.03
2019-06-26T00:32:44.979Z,3.90
2019-06-26T00:35:13.629Z,3.77
2019-06-26T00:37:43.722Z,4.22
2019-06-26T00:40:17.443Z,4.15
2019-06-26T00:42:47.527Z,4.10
2019-06-26T00:45:16.599Z,4.15
2019-06-26T00:47:46.977Z,4.25
2019-06-26T00:50:15.737Z,4.28
2019-06-26T00:52:47.110Z,4.28
2019-06-26T00:55:17.816Z,4.33
2019-06-26T00:57:46.318Z,4.78
2019-06-26T01:00:15.846Z,4.33
2019-06-26T01:02:44.367Z,4.30
2019-06-26T01:05:13.830Z,4.20
2019-06-26T01:07:42.333Z,4.87
2019-06-26T01:10:12.354Z,4.42
2019-06-26T01:12:40.855Z,4.60
2019-06-26T01:15:11.973Z,4.10
2019-06-26T01:17:40.479Z,4.08
2019-06-26T01:20:09.393Z,4.33
2019-06-26T01:22:41.408Z,4.60
2019-06-26T01:25:10.050Z,4.75
2019-06-26T01:27:38.664Z,4.45
2019-06-26T01:30:08.046Z,4.78
2019-06-26T01:32:36.574Z,4.85
2019-06-26T01:35:12.825Z,4.42
2019-06-26T01:37:41.382Z,4.87
2019-06-26T01:40:10.234Z,5.08
2019-06-26T01:42:38.680Z,5.30
2019-06-26T01:45:10.037Z,5.05
2019-06-26T01:47:38.577Z,4.92
2019-06-26T01:50:07.804Z,4.80
2019-06-26T01:52:38.568Z,5.40
2019-06-26T01:55:10.010Z,5.35
2019-06-26T01:57:38.563Z,4.47
2019-06-26T02:00:11.778Z,4.78
2019-06-26T02:02:40.282Z,4.72
2019-06-26T02:05:09.198Z,4.78
2019-06-26T02:07:37.868Z,5.17
2019-06-26T02:10:15.600Z,4.90
2019-06-26T02:12:44.206Z,4.85
2019-06-26T02:15:13.229Z,5.08
2019-06-26T02:17:43.399Z,5.37
2019-06-26T02:20:12.339Z,5.33
2019-06-26T02:22:41.701Z,5.35
2019-06-26T02:25:10.390Z,5.12
2019-06-26T02:27:42.187Z,5.53
2019-06-26T02:30:14.367Z,5.53
2019-06-26T02:32:42.919Z,5.75
2019-06-26T02:35:11.674Z,5.20
2019-06-26T02:37:40.286Z,5.70
2019-06-26T02:40:12.429Z,5.70
2019-06-26T02:42:41.182Z,5.22
2019-06-26T02:45:12.311Z,5.50
2019-06-26T02:47:41.952Z,5.37
2019-06-26T02:50:11.428Z,5.97
2019-06-26T02:52:39.941Z,5.33
2019-06-26T02:55:08.565Z,5.80
2019-06-26T02:57:37.143Z,6.15
2019-06-26T03:00:08.819Z,6.50
2019-06-26T03:02:37.412Z,5.83
2019-06-26T03:05:09.022Z,5.75
2019-06-26T03:07:37.281Z,6.55
2019-06-26T03:10:07.965Z,5.97
2019-06-26T03:12:36.489Z,5.78
2019-06-26T03:15:09.967Z,5.92
2019-06-26T03:17:54.162Z,5.65
2019-06-26T03:20:47.321Z,6.55
2019-06-26T03:23:38.762Z,6.50
2019-06-26T04:04:46.162Z,6.30
2019-06-26T04:13:55.068Z,6.62
2019-06-26T04:22:21.373Z,6.83
2019-06-26T04:24:49.908Z,7.47
2019-06-26T04:27:18.555Z,7.65
2019-06-26T04:29:48.337Z,7.60
2019-06-26T04:32:16.872Z,7.90
2019-06-26T04:34:45.493Z,7.80
2019-06-26T04:37:15.627Z,7.75
2019-06-26T04:39:45.787Z,8.95
2019-06-26T04:42:14.387Z,7.85
2019-06-26T04:45:02.333Z,8.78
2019-06-26T04:47:32.680Z,8.45
2019-06-26T04:50:01.185Z,8.35
2019-06-26T04:52:29.744Z,8.70
2019-06-26T04:54:58.288Z,9.15
2019-06-26T04:57:27.368Z,8.85
2019-06-26T04:59:55.907Z,8.75
2019-06-26T05:02:24.442Z,8.55
2019-06-26T05:05:00.813Z,9.85
2019-06-26T05:07:29.309Z,9.83
2019-06-26T05:10:08.938Z,10.48
2019-06-26T05:12:34.994Z,9.65
2019-06-26T05:15:05.330Z,10.15
2019-06-26T05:17:33.937Z,11.50
2019-06-26T05:20:54.640Z,9.98
2019-06-26T05:23:02.431Z,9.97
2019-06-26T05:25:31.123Z,9.85
2019-06-26T05:27:59.739Z,11.05
2019-06-26T05:30:30.490Z,10.55
2019-06-26T05:32:59.450Z,10.58
2019-06-26T05:35:28.101Z,10.98
2019-06-26T05:37:57.223Z,11.20
2019-06-26T05:40:25.802Z,10.28
2019-06-26T05:42:54.435Z,10.90
2019-06-26T05:45:23.451Z,10.38
2019-06-26T05:47:52.095Z,11.75
2019-06-26T05:50:22.869Z,10.93
2019-06-26T05:52:53.203Z,12.07
2019-06-26T05:55:23.618Z,11.12
2019-06-26T05:57:55.087Z,11.18
2019-06-26T06:00:24.469Z,12.35
2019-06-26T06:02:54.095Z,11.85
2019-06-26T06:05:42.269Z,12.43
2019-06-26T06:08:11.127Z,11.33
2019-06-26T06:10:46.724Z,10.72
2019-06-26T06:13:15.334Z,10.55
2019-06-26T06:16:00.748Z,12.45
2019-06-26T06:18:30.440Z,11.93
2019-06-26T06:23:51.079Z,11.73
2019-06-26T06:26:19.621Z,12.50
2019-06-26T06:28:48.312Z,11.60
2019-06-26T06:31:21.142Z,11.40
2019-06-26T06:33:56.765Z,13.05
2019-06-26T06:36:25.445Z,12.68
2019-06-26T06:38:55.683Z,14.10
2019-06-26T06:41:24.191Z,12.47
2019-06-26T06:43:53.351Z,12.78
2019-06-26T06:46:21.861Z,12.30
2019-06-26T06:48:50.430Z,13.62
2019-06-26T06:51:19.922Z,14.68
2019-06-26T06:53:48.420Z,12.73
2019-06-26T06:56:17.590Z,13.62
2019-06-26T06:58:46.101Z,13.55
2019-06-26T07:01:14.594Z,14.13
2019-06-26T07:03:43.097Z,14.78
2019-06-26T07:06:11.616Z,13.58
2019-06-26T07:08:44.542Z,16.37
2019-06-26T07:11:12.940Z,15.23
2019-06-26T07:13:42.438Z,14.45
2019-06-26T07:16:10.918Z,14.45
2019-06-26T07:18:39.440Z,13.50
2019-06-26T07:21:08.034Z,13.48
2019-06-26T07:23:36.559Z,12.60
2019-06-26T07:26:05.032Z,13.43
2019-06-26T07:28:33.646Z,13.13
2019-06-26T07:31:02.194Z,12.85
2019-06-26T07:33:30.788Z,13.00
2019-06-26T07:35:59.499Z,12.73
2019-06-26T07:38:27.968Z,12.30
2019-06-26T07:40:56.432Z,11.40
2019-06-26T07:43:24.902Z,12.25
2019-06-26T07:45:53.373Z,10.65
2019-06-26T07:48:21.914Z,11.95
2019-06-26T07:50:50.462Z,11.90
2019-06-26T07:53:19.054Z,12.95
2019-06-26T07:55:47.528Z,14.30
2019-06-26T07:58:16.138Z,10.30
2019-06-26T08:00:44.584Z,13.15
2019-06-26T08:03:13.140Z,10.40
2019-06-26T08:05:43.079Z,10.38
2019-06-26T08:08:14.581Z,10.15
2019-06-26T08:10:42.548Z,9.43
2019-06-26T08:13:11.069Z,9.23
2019-06-26T08:15:39.489Z,8.93
2019-06-26T08:18:08.009Z,8.90
2019-06-26T08:20:51.594Z,7.70
2019-06-26T08:23:06.598Z,7.85
2019-06-26T08:25:35.034Z,7.33
2019-06-26T08:28:04.418Z,7.20
2019-06-26T08:30:32.918Z,7.17
2019-06-26T08:33:01.407Z,6.22
2019-06-26T08:35:29.868Z,7.20
2019-06-26T08:38:09.414Z,7.00
2019-06-26T08:40:28.685Z,6.65
2019-06-26T08:42:57.221Z,6.08
2019-06-26T08:45:25.666Z,6.00
2019-06-26T08:47:55.624Z,5.30
2019-06-26T08:50:24.358Z,5.35
2019-06-26T08:52:54.582Z,6.08
2019-06-26T08:55:23.067Z,6.30
2019-06-26T08:57:51.541Z,4.95
2019-06-26T09:00:20.355Z,4.25
2019-06-26T09:02:48.817Z,4.70
2019-06-26T09:05:17.522Z,4.78
2019-06-26T09:07:45.978Z,4.10
2019-06-26T09:10:14.912Z,4.75
2019-06-26T09:12:43.347Z,4.50
2019-06-26T09:15:12.136Z,3.75
2019-06-26T09:17:40.619Z,3.92
2019-06-26T09:20:11.887Z,4.00
2019-06-26T09:22:40.383Z,4.08
2019-06-26T09:25:20.813Z,5.00
2019-06-26T09:27:39.340Z,4.47
2019-06-26T09:30:08.948Z,3.80
2019-06-26T09:32:37.394Z,4.15
2019-06-26T09:35:07.906Z,3.87
2019-06-26T09:37:36.443Z,4.30
2019-06-26T09:40:06.642Z,3.40
2019-06-26T09:42:35.078Z,4.37
2019-06-26T09:45:04.587Z,4.15
2019-06-26T09:47:33.034Z,4.50
2019-06-26T09:50:01.939Z,4.35
2019-06-26T09:52:30.578Z,4.17
2019-06-26T09:55:00.627Z,3.90
2019-06-26T09:57:29.176Z,4.10
2019-06-26T09:59:58.830Z,5.30
2019-06-26T10:02:27.262Z,4.65
2019-06-26T10:04:55.731Z,4.28
2019-06-26T10:07:24.164Z,4.50
2019-06-26T10:09:52.713Z,5.03
2019-06-26T10:12:21.248Z,4.62
2019-06-26T10:14:52.713Z,4.70
2019-06-26T10:17:21.190Z,4.90
2019-06-26T10:19:49.651Z,5.00
2019-06-26T10:22:19.225Z,4.40
2019-06-26T10:24:47.715Z,4.80
2019-06-26T10:27:16.169Z,5.15
2019-06-26T10:29:44.615Z,10.20
2019-06-26T10:32:13.171Z,4.40
2019-06-26T10:34:42.022Z,4.67
2019-06-26T10:37:10.494Z,5.30
2019-06-26T10:39:38.982Z,4.95
2019-06-26T10:42:07.430Z,5.00
2019-06-26T10:44:35.874Z,4.90
2019-06-26T10:47:04.415Z,4.72
2019-06-26T10:49:32.920Z,4.85
2019-06-26T10:52:04.334Z,5.17
2019-06-26T10:54:35.450Z,5.00
2019-06-26T10:57:05.465Z,4.08
2019-06-26T10:59:35.287Z,4.20
2019-06-26T11:02:18.791Z,4.55
2019-06-26T11:04:57.278Z,4.25
2019-06-26T11:07:31.455Z,4.37
2019-06-26T11:10:01.686Z,3.90
2019-06-26T11:12:33.577Z,4.55
2019-06-26T11:15:07.639Z,4.35
2019-06-26T11:17:39.530Z,4.58
2019-06-26T11:20:36.533Z,4.75
2019-06-26T11:23:15.982Z,5.75
2019-06-26T11:25:47.397Z,5.17
2019-06-26T11:28:24.567Z,6.37
2019-06-26T11:30:55.526Z,5.50
2019-06-26T11:33:37.462Z,5.90
2019-06-26T11:36:07.947Z,5.53
2019-06-26T11:41:10.465Z,4.70
2019-06-26T11:43:48.811Z,5.50
2019-06-26T11:46:33.528Z,5.55
2019-06-26T11:49:08.144Z,5.65
2019-06-26T11:51:32.360Z,6.12
2019-06-26T11:54:01.028Z,6.00
2019-06-26T11:56:44.114Z,6.65
2019-06-26T11:59:14.213Z,6.45
2019-06-26T12:01:43.113Z,6.25
2019-06-26T12:07:07.022Z,7.15
2019-06-26T12:09:45.250Z,7.80
2019-06-26T12:12:37.096Z,8.63
2019-06-26T12:15:14.405Z,7.65
2019-06-26T12:18:01.471Z,6.33
2019-06-26T12:20:32.849Z,6.75
2019-06-26T12:23:04.356Z,7.05
2019-06-26T12:28:31.883Z,7.65
2019-06-26T12:31:07.541Z,7.80
2019-06-26T12:33:38.121Z,12.23
2019-06-26T12:36:11.269Z,10.53
2019-06-26T12:38:59.529Z,11.50
2019-06-26T12:41:36.359Z,12.80
2019-06-26T12:44:10.820Z,14.23
2019-06-26T12:47:00.070Z,11.85
2019-06-26T12:50:04.010Z,13.10
2019-06-26T12:52:48.540Z,12.88
2019-06-26T12:55:27.496Z,10.25
2019-06-26T12:58:19.716Z,8.85
2019-06-26T13:00:37.812Z,10.03
2019-06-26T13:03:09.229Z,8.48
2019-06-26T13:05:39.399Z,7.45
2019-06-26T13:10:49.409Z,7.60
2019-06-26T13:13:16.044Z,7.45
2019-06-26T13:15:52.847Z,7.03
2019-06-26T13:18:23.563Z,7.62
2019-06-26T13:20:53.702Z,6.70
2019-06-26T13:23:29.432Z,6.00
2019-06-26T13:26:09.658Z,5.97
2019-06-26T13:28:42.821Z,6.37
2019-06-26T13:31:11.344Z,7.00
2019-06-26T13:33:44.271Z,6.92
2019-06-26T13:36:18.517Z,7.47
2019-06-26T13:38:47.030Z,6.40
2019-06-26T13:41:15.576Z,6.75
2019-06-26T13:43:50.800Z,5.78
2019-06-26T13:46:24.333Z,6.58
2019-06-26T13:49:03.203Z,4.85
2019-06-26T13:51:35.489Z,5.10
2019-06-26T13:54:05.792Z,4.70
2019-06-26T13:56:55.287Z,3.52
2019-06-26T13:59:23.847Z,4.05
2019-06-26T14:02:13.404Z,3.08
2019-06-26T14:08:06.479Z,4.15
2019-06-26T14:14:56.126Z,3.40
2019-06-26T14:17:34.347Z,3.85
2019-06-26T14:19:54.793Z,3.20
2019-06-26T14:22:52.651Z,3.70
2019-06-26T14:31:22.062Z,3.45
2019-06-26T14:34:42.707Z,3.62
2019-06-26T14:37:14.768Z,3.45
2019-06-26T14:39:49.340Z,3.62
2019-06-26T14:42:25.736Z,3.17
2019-06-26T14:45:00.299Z,4.17
2019-06-26T14:50:39.523Z,3.80
2019-06-26T14:53:22.570Z,4.08
2019-06-26T14:55:53.320Z,3.65
2019-06-26T14:58:36.536Z,3.70
2019-06-26T15:07:30.798Z,4.42
2019-06-26T15:10:23.091Z,4.75
2019-06-26T15:12:59.712Z,4.83
2019-06-26T15:15:49.800Z,4.95
2019-06-26T15:18:24.250Z,4.35
2019-06-26T15:26:44.302Z,5.10
2019-06-26T15:32:52.287Z,4.70
2019-06-26T15:39:03.393Z,4.60
2019-06-26T15:44:27.496Z,4.45
2019-06-26T15:47:00.755Z,4.03
2019-06-26T15:52:43.874Z,4.05
2019-06-26T15:55:20.874Z,3.77
2019-06-26T15:57:55.432Z,4.30
2019-06-26T16:00:36.398Z,4.20
2019-06-26T16:03:29.475Z,4.10
2019-06-26T16:06:08.465Z,3.85
2019-06-26T16:11:53.981Z,4.15
2019-06-26T16:15:11.079Z,4.20
2019-06-26T16:20:06.444Z,4.45
2019-06-26T16:25:24.627Z,4.50
2019-06-26T16:28:05.135Z,4.05
2019-06-26T16:30:34.586Z,4.60
2019-06-26T16:33:13.876Z,4.00
2019-06-26T16:35:46.215Z,4.07
2019-06-26T16:44:33.699Z,3.85
2019-06-26T16:46:59.220Z,4.53
2019-06-26T16:49:30.937Z,4.00
2019-06-26T16:52:06.064Z,4.45
2019-06-26T16:54:47.254Z,4.70
2019-06-26T16:58:30.655Z,4.55
2019-06-26T17:03:04.002Z,4.10
2019-06-26T17:22:40.253Z,3.20
2019-06-26T17:25:09.649Z,3.83
2019-06-26T17:27:38.119Z,4.22
2019-06-26T17:30:07.988Z,3.85
2019-06-26T17:32:36.421Z,4.33
2019-06-26T17:35:07.631Z,5.00
2019-06-26T17:37:38.947Z,4.12
2019-06-26T17:40:08.537Z,4.35
2019-06-26T17:42:36.988Z,4.00
2019-06-26T17:45:09.808Z,3.85
2019-06-26T17:47:38.344Z,4.78
2019-06-26T17:50:07.605Z,4.58
2019-06-26T17:52:38.502Z,4.42
2019-06-26T17:55:10.179Z,4.33
2019-06-26T17:57:38.722Z,4.22
2019-06-26T18:00:08.550Z,4.12
2019-06-26T18:02:37.010Z,4.40
2019-06-26T18:05:06.084Z,4.12
2019-06-26T18:07:34.587Z,4.08
2019-06-26T18:10:03.758Z,4.42
2019-06-26T18:12:35.229Z,4.25
2019-06-26T18:15:07.614Z,4.20
2019-06-26T18:17:36.099Z,3.95
2019-06-26T18:20:06.499Z,3.55
2019-06-26T18:22:35.158Z,4.10
2019-06-26T18:25:04.372Z,3.80
2019-06-26T18:27:32.894Z,3.58
2019-06-26T18:30:04.293Z,4.33
2019-06-26T18:32:32.781Z,3.33
2019-06-26T18:35:01.221Z,3.55
2019-06-26T18:37:29.681Z,3.45
2019-06-26T18:39:58.141Z,3.72
2019-06-26T18:42:26.700Z,3.55
2019-06-26T18:44:55.172Z,3.40
2019-06-26T18:47:23.615Z,3.12
2019-06-26T18:49:52.095Z,2.85
2019-06-26T18:52:20.556Z,3.08
2019-06-26T18:54:49.111Z,2.70
2019-06-26T18:57:18.932Z,2.83
2019-06-26T18:59:49.377Z,2.80
2019-06-26T19:02:19.486Z,2.75
2019-06-26T19:04:49.622Z,2.75
2019-06-26T19:07:19.146Z,2.65
2019-06-26T19:09:49.249Z,2.98
2019-06-26T19:12:20.557Z,2.83
2019-06-26T19:14:50.598Z,2.95
2019-06-26T19:17:19.082Z,2.60
2019-06-26T19:19:49.032Z,3.10
2019-06-26T19:22:17.593Z,3.10
2019-06-26T19:24:47.744Z,3.33
2019-06-26T19:27:20.489Z,2.90
2019-06-26T19:29:49.066Z,3.05
2019-06-26T19:32:17.682Z,3.02
2019-06-26T19:34:46.248Z,3.00
2019-06-26T19:37:14.875Z,3.12
2019-06-26T19:39:43.403Z,2.92
2019-06-26T19:42:11.953Z,3.90
2019-06-26T19:44:40.582Z,4.10
2019-06-26T19:47:09.190Z,4.22
2019-06-26T19:49:41.306Z,4.25
2019-06-26T19:52:09.756Z,4.95
2019-06-26T19:54:38.440Z,5.20
2019-06-26T19:57:06.955Z,4.62
2019-06-26T19:59:35.461Z,5.15
2019-06-26T20:02:06.197Z,4.87
2019-06-26T20:04:34.578Z,5.62
2019-06-26T20:07:03.108Z,4.72
2019-06-26T20:09:44.910Z,4.90
2019-06-26T20:12:23.081Z,3.80
2019-06-26T20:14:58.587Z,3.77
2019-06-26T20:18:18.199Z,3.37
2019-06-26T20:20:09.901Z,3.65
2019-06-26T20:22:56.180Z,3.22
2019-06-26T20:25:45.075Z,3.60
2019-06-26T20:28:21.947Z,3.70
2019-06-26T20:31:14.864Z,5.20
2019-06-26T20:36:44.018Z,6.58
2019-06-26T20:39:12.632Z,5.50
2019-06-26T20:41:41.302Z,6.53
2019-06-26T20:44:11.611Z,6.10
2019-06-26T20:46:43.004Z,6.47
2019-06-26T20:49:11.530Z,5.60
2019-06-26T20:51:43.065Z,5.87
2019-06-26T20:54:11.591Z,5.75
2019-06-26T20:56:45.172Z,5.50
2019-06-26T20:59:13.694Z,5.15
2019-06-26T21:01:42.242Z,4.72
2019-06-26T21:04:27.940Z,4.92
2019-06-26T21:06:56.385Z,4.40
2019-06-26T21:09:37.059Z,4.25
2019-06-26T21:12:19.153Z,3.90
2019-06-26T21:14:46.697Z,3.80
2019-06-26T21:17:15.155Z,4.22
2019-06-26T21:19:43.625Z,3.77
2019-06-26T21:22:12.082Z,4.05
2019-06-26T21:24:40.584Z,4.08
2019-06-26T21:27:09.021Z,3.80
2019-06-26T21:29:37.605Z,3.45
2019-06-26T21:32:07.619Z,3.02
2019-06-26T21:34:37.190Z,2.98
2019-06-26T21:37:05.736Z,2.67
2019-06-26T21:39:34.256Z,2.60
2019-06-26T21:42:02.806Z,3.05
2019-06-26T21:44:31.351Z,3.27
2019-06-26T21:47:02.492Z,2.52
2019-06-26T21:49:30.990Z,3.27
2019-06-26T21:51:59.419Z,2.70
2019-06-26T21:54:27.905Z,3.02
2019-06-26T21:56:56.417Z,2.90
2019-06-26T21:59:24.867Z,2.60
2019-06-26T22:01:53.539Z,2.55
2019-06-26T22:04:22.154Z,2.47
2019-06-26T22:06:50.740Z,2.58
2019-06-26T22:09:19.261Z,2.85
2019-06-26T22:11:47.825Z,2.50
2019-06-26T22:14:16.373Z,2.80
2019-06-26T22:16:44.895Z,2.67
2019-06-26T22:19:13.391Z,1.82
2019-06-26T22:21:41.914Z,3.08
2019-06-26T22:24:10.504Z,2.83
2019-06-26T22:26:38.911Z,3.25
2019-06-26T22:29:07.454Z,2.67
2019-06-26T22:31:35.943Z,3.58
2019-06-26T22:34:04.540Z,3.40
2019-06-26T22:36:33.000Z,3.30
2019-06-26T22:39:01.489Z,2.83
2019-06-26T22:41:29.937Z,2.45
2019-06-26T22:43:58.406Z,2.92
2019-06-26T22:46:26.915Z,3.35
2019-06-26T22:48:57.010Z,2.98
2019-06-26T22:51:25.470Z,2.55
2019-06-26T22:53:56.819Z,2.80
2019-06-26T22:56:25.775Z,3.45
2019-06-26T22:58:54.246Z,3.05
2019-06-26T23:01:22.752Z,3.35
2019-06-26T23:03:51.283Z,3.52
2019-06-26T23:06:19.806Z,3.60
2019-06-26T23:08:48.289Z,3.47
2019-06-26T23:11:16.788Z,3.10
2019-06-26T23:13:45.287Z,3.10
2019-06-26T23:16:13.754Z,3.02
2019-06-26T23:18:42.239Z,3.27
2019-06-26T23:21:10.683Z,3.52
2019-06-26T23:23:39.139Z,3.55
2019-06-26T23:26:22.937Z,3.27
2019-06-26T23:28:37.933Z,3.75
2019-06-26T23:31:06.474Z,3.52
2019-06-26T23:33:34.947Z,4.22
2019-06-26T23:36:03.402Z,4.17
2019-06-26T23:38:31.885Z,5.42
2019-06-26T23:41:00.364Z,4.97
2019-06-26T23:43:28.808Z,5.12
2019-06-26T23:45:57.333Z,4.78
2019-06-26T23:48:25.812Z,5.00
2019-06-26T23:50:54.345Z,5.03
2019-06-26T23:53:22.833Z,5.00
2019-06-26T23:56:06.572Z,4.50
2019-06-26T23:58:34.996Z,5.30
